createdAt,value
2019-05-30T00:00:18.346Z," 10.0"
2019-05-30T00:01:06.521Z," 10.0"
2019-05-30T00:01:56.386Z," 10.0"
2019-05-30T00:02:42.913Z," 10.0"
2019-05-30T00:03:31.126Z," 10.0"
2019-05-30T00:04:24.651Z," 10.0"
2019-05-30T00:05:12.840Z,"  9.9"
2019-05-30T00:06:02.395Z,"  9.9"
2019-05-30T00:06:49.233Z,"  9.9"
2019-05-30T00:07:37.454Z,"  9.9"
2019-05-30T00:08:30.964Z,"  9.9"
2019-05-30T00:09:19.134Z,"  9.9"
2019-05-30T00:10:08.977Z,"  9.8"
2019-05-30T00:10:56.490Z,"  9.8"
2019-05-30T00:11:43.744Z,"  9.8"
2019-05-30T00:12:37.334Z,"  9.8"
2019-05-30T00:13:25.525Z,"  9.8"
2019-05-30T00:14:14.217Z,"  9.8"
2019-05-30T00:15:05.906Z,"  9.8"
2019-05-30T00:15:50.062Z,"  9.8"
2019-05-30T00:16:43.602Z,"  9.8"
2019-05-30T00:17:31.817Z,"  9.8"
2019-05-30T00:18:20.612Z,"  9.8"
2019-05-30T00:19:08.239Z,"  9.8"
2019-05-30T00:19:56.714Z,"  9.7"
2019-05-30T00:20:49.930Z,"  9.7"
2019-05-30T00:21:38.126Z,"  9.7"
2019-05-30T00:22:27.352Z,"  9.7"
2019-05-30T00:23:14.514Z,"  9.6"
2019-05-30T00:24:03.807Z,"  9.6"
2019-05-30T00:24:56.243Z,"  9.6"
2019-05-30T00:25:44.458Z,"  9.6"
2019-05-30T00:26:34.898Z,"  9.5"
2019-05-30T00:27:20.815Z,"  9.5"
2019-05-30T00:28:09.012Z,"  9.5"
2019-05-30T00:29:02.664Z,"  9.5"
2019-05-30T00:29:50.741Z,"  9.5"
2019-05-30T00:30:40.058Z,"  9.5"
2019-05-30T00:31:27.137Z,"  9.4"
2019-05-30T00:32:15.314Z,"  9.4"
2019-05-30T00:33:08.846Z,"  9.4"
2019-05-30T00:33:57.484Z,"  9.4"
2019-05-30T00:34:45.778Z,"  9.4"
2019-05-30T00:35:33.423Z,"  9.4"
2019-05-30T00:36:21.625Z,"  9.4"
2019-05-30T00:37:15.134Z,"  9.4"
2019-05-30T00:38:03.878Z,"  9.4"
2019-05-30T00:38:52.091Z,"  9.3"
2019-05-30T00:39:39.723Z,"  9.3"
2019-05-30T00:40:27.889Z,"  9.2"
2019-05-30T00:41:21.422Z,"  9.2"
2019-05-30T00:42:09.613Z,"  9.2"
2019-05-30T00:42:47.249Z,"  9.2"
2019-05-30T00:42:49.710Z,"  9.2"
2019-05-30T00:43:37.378Z,"  9.1"
2019-05-30T00:44:25.701Z,"  9.1"
2019-05-30T00:45:21.170Z,"  9.1"
2019-05-30T00:46:07.305Z,"  9.0"
2019-05-30T00:46:56.154Z,"  9.0"
2019-05-30T00:47:43.720Z,"  9.0"
2019-05-30T00:48:31.911Z,"  9.1"
2019-05-30T00:49:25.404Z,"  9.1"
2019-05-30T00:50:13.586Z,"  9.1"
2019-05-30T00:51:49.993Z,"  9.1"
2019-05-30T00:52:38.133Z,"  9.1"
2019-05-30T00:53:22.660Z,"  9.1"
2019-05-30T00:54:10.788Z,"  9.1"
2019-05-30T00:55:00.679Z,"  9.1"
2019-05-30T00:55:47.156Z,"  9.1"
2019-05-30T00:56:35.333Z,"  9.1"
2019-05-30T00:57:28.863Z,"  9.1"
2019-05-30T00:58:17.065Z,"  9.1"
2019-05-30T00:59:06.932Z,"  9.1"
2019-05-30T00:59:53.486Z,"  9.0"
2019-05-30T01:00:43.868Z,"  9.0"
2019-05-30T01:01:35.183Z,"  9.0"
2019-05-30T01:02:23.361Z,"  9.0"
2019-05-30T01:04:00.775Z,"  8.9"
2019-05-30T01:04:47.916Z,"  8.9"
2019-05-30T01:05:41.481Z,"  8.9"
2019-05-30T01:06:29.667Z,"  8.9"
2019-05-30T01:07:18.864Z,"  8.8"
2019-05-30T01:08:07.102Z,"  8.8"
2019-05-30T01:08:54.219Z,"  8.8"
2019-05-30T01:09:47.770Z,"  8.8"
2019-05-30T01:10:35.921Z,"  8.8"
2019-05-30T01:11:24.591Z,"  8.7"
2019-05-30T01:12:12.330Z,"  8.7"
2019-05-30T01:13:01.374Z,"  8.7"
2019-05-30T01:13:53.999Z,"  8.7"
2019-05-30T01:14:42.248Z,"  8.7"
2019-05-30T01:15:30.891Z,"  8.7"
2019-05-30T01:16:18.596Z,"  8.7"
2019-05-30T01:17:07.369Z,"  8.6"
2019-05-30T01:18:01.038Z,"  8.6"
2019-05-30T01:18:48.460Z,"  8.6"
2019-05-30T01:19:37.169Z,"  8.6"
2019-05-30T01:20:24.822Z,"  8.6"
2019-05-30T01:21:13.006Z,"  8.6"
2019-05-30T01:22:07.551Z,"  8.6"
2019-05-30T01:22:54.720Z,"  8.6"
2019-05-30T01:23:43.401Z,"  8.5"
2019-05-30T01:24:31.120Z,"  8.5"
2019-05-30T01:25:19.311Z,"  8.5"
2019-05-30T01:26:12.858Z,"  8.5"
2019-05-30T01:27:01.356Z,"  8.5"
2019-05-30T01:27:49.785Z,"  8.5"
2019-05-30T01:28:37.375Z,"  8.5"
2019-05-30T01:29:25.617Z,"  8.4"
2019-05-30T01:30:19.107Z,"  8.4"
2019-05-30T01:31:10.973Z,"  8.4"
2019-05-30T01:31:57.414Z,"  8.4"
2019-05-30T01:32:43.644Z,"  8.3"
2019-05-30T01:33:31.800Z,"  8.3"
2019-05-30T01:34:25.385Z,"  8.3"
2019-05-30T01:35:13.617Z,"  8.3"
2019-05-30T01:36:02.325Z,"  8.3"
2019-05-30T01:36:49.932Z,"  8.3"
2019-05-30T01:37:38.125Z,"  8.3"
2019-05-30T01:38:31.645Z,"  8.3"
2019-05-30T01:39:19.812Z,"  8.2"
2019-05-30T01:40:09.019Z,"  8.2"
2019-05-30T01:40:56.185Z,"  8.2"
2019-05-30T01:41:44.352Z,"  8.2"
2019-05-30T01:42:37.917Z,"  8.2"
2019-05-30T01:43:26.047Z,"  8.2"
2019-05-30T01:44:14.887Z,"  8.2"
2019-05-30T01:45:02.641Z,"  8.2"
2019-05-30T01:45:50.585Z,"  8.2"
2019-05-30T01:46:44.096Z,"  8.2"
2019-05-30T01:47:32.305Z,"  8.1"
2019-05-30T01:48:21.080Z,"  8.2"
2019-05-30T01:49:08.793Z,"  8.2"
2019-05-30T01:49:58.155Z,"  8.2"
2019-05-30T01:50:50.357Z,"  8.2"
2019-05-30T01:51:38.498Z,"  8.2"
2019-05-30T01:52:27.255Z,"  8.2"
2019-05-30T01:53:14.859Z,"  8.2"
2019-05-30T01:54:03.022Z,"  8.2"
2019-05-30T01:54:56.555Z,"  8.1"
2019-05-30T01:55:44.732Z,"  8.1"
2019-05-30T01:56:33.491Z,"  8.1"
2019-05-30T01:57:21.091Z,"  8.1"
2019-05-30T01:58:09.258Z,"  8.1"
2019-05-30T01:59:02.758Z,"  8.0"
2019-05-30T01:59:50.937Z,"  8.0"
2019-05-30T02:00:39.692Z,"  8.0"
2019-05-30T02:01:27.321Z,"  8.0"
2019-05-30T02:02:15.508Z,"  8.0"
2019-05-30T02:03:09.510Z,"  8.0"
2019-05-30T02:03:57.181Z,"  7.9"
2019-05-30T02:04:46.068Z,"  7.9"
2019-05-30T02:05:33.564Z,"  7.9"
2019-05-30T02:06:21.783Z,"  7.9"
2019-05-30T02:07:15.266Z,"  7.9"
2019-05-30T02:08:03.433Z,"  7.9"
2019-05-30T02:08:52.709Z,"  7.9"
2019-05-30T02:09:39.777Z,"  7.8"
2019-05-30T02:10:27.949Z,"  7.8"
2019-05-30T02:10:43.894Z,"  7.8"
2019-05-30T02:11:15.913Z,"  7.8"
2019-05-30T02:12:05.479Z,"  7.8"
2019-05-30T02:12:52.819Z,"  7.8"
2019-05-30T02:13:40.415Z,"  7.8"
2019-05-30T02:14:28.595Z,"  7.8"
2019-05-30T02:15:22.134Z,"  7.8"
2019-05-30T02:16:10.302Z,"  7.8"
2019-05-30T02:16:59.619Z,"  7.8"
2019-05-30T02:17:46.652Z,"  7.8"
2019-05-30T02:18:34.815Z,"  7.8"
2019-05-30T02:19:28.310Z,"  7.8"
2019-05-30T02:20:16.497Z,"  7.8"
2019-05-30T02:21:05.911Z,"  7.8"
2019-05-30T02:21:52.870Z,"  7.8"
2019-05-30T02:22:41.028Z,"  7.7"
2019-05-30T02:23:34.556Z,"  7.7"
2019-05-30T02:24:22.741Z,"  7.7"
2019-05-30T02:25:11.462Z,"  7.7"
2019-05-30T02:26:00.095Z,"  7.7"
2019-05-30T02:26:47.228Z,"  7.6"
2019-05-30T02:27:40.731Z,"  7.6"
2019-05-30T02:28:28.896Z,"  7.6"
2019-05-30T02:29:17.671Z,"  7.6"
2019-05-30T02:30:06.643Z,"  7.6"
2019-05-30T02:30:53.404Z,"  7.5"
2019-05-30T02:31:46.911Z,"  7.5"
2019-05-30T02:32:35.095Z,"  7.5"
2019-05-30T02:33:23.984Z,"  7.5"
2019-05-30T02:34:12.335Z,"  7.5"
2019-05-30T02:35:00.794Z,"  7.5"
2019-05-30T02:35:53.129Z,"  7.5"
2019-05-30T02:36:41.292Z,"  7.5"
2019-05-30T02:37:30.525Z,"  7.5"
2019-05-30T02:38:17.640Z,"  7.5"
2019-05-30T02:39:07.420Z,"  7.5"
2019-05-30T02:40:02.919Z,"  7.4"
2019-05-30T02:40:47.510Z,"  7.4"
2019-05-30T02:41:36.632Z,"  7.4"
2019-05-30T02:42:23.835Z,"  7.3"
2019-05-30T02:43:12.400Z,"  7.3"
2019-05-30T02:44:07.450Z,"  7.2"
2019-05-30T02:44:53.768Z,"  7.2"
2019-05-30T02:45:42.478Z,"  7.1"
2019-05-30T02:46:30.038Z,"  7.1"
2019-05-30T02:47:22.179Z,"  7.1"
2019-05-30T02:48:12.374Z,"  7.1"
2019-05-30T02:49:02.155Z,"  7.1"
2019-05-30T02:49:48.575Z,"  7.1"
2019-05-30T02:50:36.187Z,"  7.1"
2019-05-30T02:51:24.347Z,"  7.1"
2019-05-30T02:52:17.878Z,"  7.1"
2019-05-30T02:53:07.981Z,"  7.1"
2019-05-30T02:53:54.739Z,"  7.1"
2019-05-30T02:54:42.362Z,"  7.1"
2019-05-30T02:55:30.533Z,"  7.1"
2019-05-30T02:56:24.071Z,"  7.2"
2019-05-30T02:57:12.648Z,"  7.2"
2019-05-30T02:58:01.355Z,"  7.2"
2019-05-30T02:58:48.539Z,"  7.2"
2019-05-30T02:59:36.722Z,"  7.2"
2019-05-30T03:00:30.261Z,"  7.1"
2019-05-30T03:01:18.406Z,"  7.1"
2019-05-30T03:02:12.363Z,"  7.1"
2019-05-30T03:02:54.738Z,"  7.1"
2019-05-30T03:03:42.923Z,"  7.1"
2019-05-30T03:04:36.443Z,"  7.1"
2019-05-30T03:05:24.592Z,"  7.1"
2019-05-30T03:06:14.078Z,"  7.1"
2019-05-30T03:07:02.002Z,"  7.1"
2019-05-30T03:07:49.123Z,"  7.1"
2019-05-30T03:08:42.593Z,"  7.1"
2019-05-30T03:09:30.769Z,"  7.1"
2019-05-30T03:10:19.466Z,"  7.1"
2019-05-30T03:11:09.995Z,"  7.1"
2019-05-30T03:11:55.263Z,"  7.1"
2019-05-30T03:12:48.757Z,"  7.1"
2019-05-30T03:13:36.918Z,"  7.1"
2019-05-30T03:14:25.644Z,"  7.2"
2019-05-30T03:15:15.579Z,"  7.2"
2019-05-30T03:16:02.175Z,"  7.2"
2019-05-30T03:16:54.927Z,"  7.2"
2019-05-30T03:17:43.084Z,"  7.2"
2019-05-30T03:18:31.774Z,"  7.2"
2019-05-30T03:19:16.314Z,"  7.2"
2019-05-30T03:19:18.590Z,"  7.2"
2019-05-30T03:20:14.721Z,"  7.2"
2019-05-30T03:21:00.248Z,"  7.2"
2019-05-30T03:21:48.408Z,"  7.2"
2019-05-30T03:22:37.097Z,"  7.2"
2019-05-30T03:23:24.754Z,"  7.1"
2019-05-30T03:24:14.356Z,"  7.1"
2019-05-30T03:25:07.940Z,"  7.1"
2019-05-30T03:25:54.545Z,"  7.1"
2019-05-30T03:26:43.291Z,"  7.1"
2019-05-30T03:27:21.818Z,"  7.1"
2019-05-30T03:28:13.023Z,"  7.1"
2019-05-30T03:29:05.587Z,"  7.1"
2019-05-30T03:29:51.689Z,"  7.1"
2019-05-30T03:30:40.390Z,"  7.1"
2019-05-30T03:31:29.902Z,"  7.1"
2019-05-30T03:32:59.293Z,"  7.2"
2019-05-30T03:33:24.455Z,"  7.2"
2019-05-30T03:33:57.828Z,"  7.2"
2019-05-30T03:34:46.622Z,"  7.2"
2019-05-30T03:35:41.754Z,"  7.2"
2019-05-30T03:36:29.814Z,"  7.2"
2019-05-30T03:37:27.423Z,"  7.2"
2019-05-30T03:38:05.820Z,"  7.2"
2019-05-30T03:38:52.732Z,"  7.2"
2019-05-30T03:39:40.323Z,"  7.2"
2019-05-30T03:39:53.561Z,"  7.2"
2019-05-30T03:40:25.207Z,"  7.2"
2019-05-30T03:41:16.498Z,"  7.2"
2019-05-30T03:42:06.766Z,"  7.2"
2019-05-30T03:42:53.396Z,"  7.2"
2019-05-30T03:43:40.999Z,"  7.2"
2019-05-30T03:44:29.165Z,"  7.3"
2019-05-30T03:45:22.648Z,"  7.3"
2019-05-30T03:46:12.735Z,"  7.2"
2019-05-30T03:46:59.588Z,"  7.2"
2019-05-30T03:47:47.132Z,"  7.2"
2019-05-30T03:48:35.299Z,"  7.1"
2019-05-30T03:49:28.809Z,"  7.1"
2019-05-30T03:50:17.828Z,"  7.0"
2019-05-30T03:51:06.213Z,"  7.0"
2019-05-30T03:51:53.305Z,"  7.0"
2019-05-30T03:52:41.486Z,"  6.9"
2019-05-30T03:53:35.001Z,"  6.9"
2019-05-30T03:54:23.167Z,"  6.9"
2019-05-30T03:55:14.092Z,"  6.9"
2019-05-30T03:55:59.515Z,"  6.8"
2019-05-30T03:56:47.699Z,"  6.8"
2019-05-30T03:57:41.177Z,"  6.8"
2019-05-30T03:58:29.347Z,"  6.8"
2019-05-30T03:59:18.338Z,"  6.8"
2019-05-30T04:00:06.107Z,"  6.8"
2019-05-30T04:00:53.842Z,"  6.9"
2019-05-30T04:01:47.396Z,"  6.9"
2019-05-30T04:02:55.304Z,"  6.9"
2019-05-30T04:03:24.672Z,"  6.9"
2019-05-30T04:04:13.834Z,"  6.9"
2019-05-30T04:05:00.029Z,"  6.9"
2019-05-30T04:05:53.537Z,"  6.9"
2019-05-30T04:06:41.702Z,"  6.9"
2019-05-30T04:07:30.372Z,"  6.9"
2019-05-30T04:08:19.706Z,"  6.8"
2019-05-30T04:09:07.155Z,"  6.8"
2019-05-30T04:09:59.693Z,"  6.8"
2019-05-30T04:10:47.877Z,"  6.8"
2019-05-30T04:11:36.579Z,"  6.7"
2019-05-30T04:12:24.217Z,"  6.7"
2019-05-30T04:13:14.552Z,"  6.7"
2019-05-30T04:14:06.896Z,"  6.7"
2019-05-30T04:14:54.045Z,"  6.7"
2019-05-30T04:15:42.755Z,"  6.7"
2019-05-30T04:16:30.358Z,"  6.7"
2019-05-30T04:17:19.915Z,"  6.7"
2019-05-30T04:18:14.123Z,"  6.7"
2019-05-30T04:19:00.197Z,"  6.7"
2019-05-30T04:19:48.831Z,"  6.7"
2019-05-30T04:20:36.524Z,"  6.8"
2019-05-30T04:21:24.683Z,"  6.8"
2019-05-30T04:22:19.604Z,"  6.8"
2019-05-30T04:23:08.290Z,"  6.8"
2019-05-30T04:23:55.013Z,"  6.9"
2019-05-30T04:24:42.665Z,"  6.9"
2019-05-30T04:25:30.860Z,"  6.9"
2019-05-30T04:26:24.375Z,"  6.9"
2019-05-30T04:27:13.828Z,"  7.0"
2019-05-30T04:28:01.217Z,"  7.0"
2019-05-30T04:28:48.819Z,"  7.1"
2019-05-30T04:29:36.979Z,"  7.1"
2019-05-30T04:30:30.487Z,"  7.2"
2019-05-30T04:31:19.376Z,"  7.2"
2019-05-30T04:32:08.449Z,"  7.2"
2019-05-30T04:33:15.746Z,"  7.2"
2019-05-30T04:33:43.176Z,"  7.3"
2019-05-30T04:34:36.689Z,"  7.3"
2019-05-30T04:35:24.849Z,"  7.3"
2019-05-30T04:36:14.547Z,"  7.3"
2019-05-30T04:37:01.171Z,"  7.4"
2019-05-30T04:37:49.365Z,"  7.4"
2019-05-30T04:38:42.843Z,"  7.4"
2019-05-30T04:39:31.020Z,"  7.4"
2019-05-30T04:40:19.851Z,"  7.5"
2019-05-30T04:41:08.812Z,"  7.5"
2019-05-30T04:41:55.502Z,"  7.5"
2019-05-30T04:42:49.011Z,"  7.5"
2019-05-30T04:43:37.214Z,"  7.5"
2019-05-30T04:44:25.914Z,"  7.5"
2019-05-30T04:45:13.727Z,"  7.5"
2019-05-30T04:46:01.671Z,"  7.5"
2019-05-30T04:46:55.190Z,"  7.5"
2019-05-30T04:47:43.362Z,"  7.6"
2019-05-30T04:48:32.151Z,"  7.6"
2019-05-30T04:49:21.595Z,"  7.6"
2019-05-30T04:50:07.870Z,"  7.6"
2019-05-30T04:50:18.753Z,"  7.6"
2019-05-30T04:50:52.379Z,"  7.6"
2019-05-30T04:51:40.571Z,"  7.6"
2019-05-30T04:52:29.213Z,"  7.6"
2019-05-30T04:53:18.452Z,"  7.6"
2019-05-30T04:54:05.121Z,"  7.6"
2019-05-30T04:54:58.629Z,"  7.7"
2019-05-30T04:55:46.780Z,"  7.7"
2019-05-30T04:56:35.421Z,"  7.7"
2019-05-30T04:57:26.858Z,"  7.8"
2019-05-30T04:58:13.203Z,"  7.8"
2019-05-30T04:59:04.827Z,"  7.8"
2019-05-30T04:59:53.009Z,"  7.8"
2019-05-30T05:00:41.697Z,"  7.7"
2019-05-30T05:01:29.332Z,"  7.7"
2019-05-30T05:02:18.785Z,"  7.7"
2019-05-30T05:03:11.355Z,"  7.7"
2019-05-30T05:03:59.181Z,"  7.7"
2019-05-30T05:04:47.856Z,"  7.7"
2019-05-30T05:05:35.573Z,"  7.7"
2019-05-30T05:06:23.710Z,"  7.7"
2019-05-30T05:07:17.841Z,"  7.8"
2019-05-30T05:08:05.402Z,"  7.8"
2019-05-30T05:08:54.061Z,"  7.8"
2019-05-30T05:09:41.735Z,"  7.8"
2019-05-30T05:10:29.902Z,"  7.9"
2019-05-30T05:11:13.049Z,"  7.9"
2019-05-30T05:11:22.590Z,"  7.9"
2019-05-30T05:12:06.316Z,"  7.9"
2019-05-30T05:12:54.939Z,"  7.9"
2019-05-30T05:13:42.621Z,"  7.9"
2019-05-30T05:14:30.809Z,"  7.9"
2019-05-30T05:15:24.301Z,"  7.9"
2019-05-30T05:16:22.984Z,"  7.9"
2019-05-30T05:17:01.258Z,"  7.9"
2019-05-30T05:17:48.806Z,"  8.0"
2019-05-30T05:18:37.016Z,"  8.0"
2019-05-30T05:19:30.558Z,"  8.0"
2019-05-30T05:20:19.380Z,"  8.1"
2019-05-30T05:21:10.663Z,"  8.1"
2019-05-30T05:21:55.088Z,"  8.1"
2019-05-30T05:22:43.247Z,"  8.1"
2019-05-30T05:23:36.775Z,"  8.2"
2019-05-30T05:24:24.978Z,"  8.2"
2019-05-30T05:25:13.745Z,"  8.2"
2019-05-30T05:26:01.676Z,"  8.2"
2019-05-30T05:26:49.462Z,"  8.2"
2019-05-30T05:27:43.007Z,"  8.2"
2019-05-30T05:28:22.120Z,"  8.2"
2019-05-30T05:29:10.798Z,"  8.2"
2019-05-30T05:29:58.438Z,"  8.2"
2019-05-30T05:30:46.622Z,"  8.3"
2019-05-30T05:31:40.143Z,"  8.3"
2019-05-30T05:32:28.329Z,"  8.3"
2019-05-30T05:33:17.047Z,"  8.3"
2019-05-30T05:34:04.679Z,"  8.3"
2019-05-30T05:34:52.867Z,"  8.3"
2019-05-30T05:35:46.419Z,"  8.3"
2019-05-30T05:36:34.554Z,"  8.3"
2019-05-30T05:37:23.371Z,"  8.4"
2019-05-30T05:38:10.943Z,"  8.4"
2019-05-30T05:38:59.086Z,"  8.4"
2019-05-30T05:39:52.644Z,"  8.5"
2019-05-30T05:40:40.827Z,"  8.5"
2019-05-30T05:41:29.555Z,"  8.5"
2019-05-30T05:42:18.074Z,"  8.6"
2019-05-30T05:43:05.336Z,"  8.6"
2019-05-30T05:43:58.861Z,"  8.6"
2019-05-30T05:44:47.039Z,"  8.6"
2019-05-30T05:45:35.760Z,"  8.6"
2019-05-30T05:46:24.507Z,"  8.7"
2019-05-30T05:47:11.593Z,"  8.7"
2019-05-30T05:48:05.135Z,"  8.8"
2019-05-30T05:48:53.284Z,"  8.8"
2019-05-30T05:49:42.060Z,"  8.8"
2019-05-30T05:50:29.635Z,"  8.9"
2019-05-30T05:51:18.561Z,"  8.9"
2019-05-30T05:52:12.122Z,"  8.9"
2019-05-30T05:52:59.527Z,"  8.9"
2019-05-30T05:53:48.298Z,"  9.0"
2019-05-30T05:54:35.906Z,"  9.0"
2019-05-30T05:55:24.981Z,"  9.0"
2019-05-30T05:56:18.736Z,"  9.1"
2019-05-30T05:57:05.811Z,"  9.1"
2019-05-30T05:57:54.655Z,"  9.1"
2019-05-30T05:58:42.177Z,"  9.1"
2019-05-30T05:59:30.376Z,"  9.2"
2019-05-30T06:00:25.221Z,"  9.2"
2019-05-30T06:01:12.105Z,"  9.2"
2019-05-30T06:02:01.540Z,"  9.2"
2019-05-30T06:02:48.481Z,"  9.3"
2019-05-30T06:03:36.666Z,"  9.3"
2019-05-30T06:04:30.151Z,"  9.3"
2019-05-30T06:05:18.366Z,"  9.4"
2019-05-30T06:06:07.114Z,"  9.4"
2019-05-30T06:06:54.730Z,"  9.4"
2019-05-30T06:07:42.945Z,"  9.5"
2019-05-30T06:08:36.455Z,"  9.5"
2019-05-30T06:09:24.710Z,"  9.5"
2019-05-30T06:10:13.508Z,"  9.6"
2019-05-30T06:11:01.047Z,"  9.6"
2019-05-30T06:11:49.303Z,"  9.6"
2019-05-30T06:12:42.766Z,"  9.6"
2019-05-30T06:13:30.961Z,"  9.7"
2019-05-30T06:14:19.977Z,"  9.7"
2019-05-30T06:15:07.366Z,"  9.7"
2019-05-30T06:15:55.555Z,"  9.8"
2019-05-30T06:16:49.129Z,"  9.8"
2019-05-30T06:18:26.322Z,"  9.9"
2019-05-30T06:19:17.107Z,"  9.9"
2019-05-30T06:20:02.445Z," 10.0"
2019-05-30T06:20:55.500Z," 10.0"
2019-05-30T06:21:53.482Z," 10.0"
2019-05-30T06:22:00.136Z," 10.0"
2019-05-30T06:22:28.453Z," 10.1"
2019-05-30T06:23:17.330Z," 10.1"
2019-05-30T06:24:04.039Z," 10.1"
2019-05-30T06:24:57.589Z," 10.1"
2019-05-30T06:25:45.776Z," 10.2"
2019-05-30T06:26:33.963Z," 10.2"
2019-05-30T06:27:23.911Z," 10.3"
2019-05-30T06:28:10.431Z," 10.3"
2019-05-30T06:29:03.961Z," 10.3"
2019-05-30T06:29:52.102Z," 10.3"
2019-05-30T06:30:40.297Z," 10.4"
2019-05-30T06:31:29.067Z," 10.4"
2019-05-30T06:32:16.699Z," 10.4"
2019-05-30T06:33:10.267Z," 10.4"
2019-05-30T06:33:58.441Z," 10.5"
2019-05-30T06:34:46.647Z," 10.5"
2019-05-30T06:35:35.381Z," 10.5"
2019-05-30T06:36:23.187Z," 10.5"
2019-05-30T06:37:16.577Z," 10.6"
2019-05-30T06:38:04.789Z," 10.6"
2019-05-30T06:38:52.979Z," 10.6"
2019-05-30T06:39:41.776Z," 10.6"
2019-05-30T06:40:30.939Z," 10.7"
2019-05-30T06:41:23.530Z," 10.7"
2019-05-30T06:42:11.118Z," 10.7"
2019-05-30T06:42:59.338Z," 10.7"
2019-05-30T06:43:14.959Z," 10.7"
2019-05-30T06:43:44.966Z," 10.7"
2019-05-30T06:44:32.595Z," 10.8"
2019-05-30T06:45:26.817Z," 10.8"
2019-05-30T06:46:14.389Z," 10.8"
2019-05-30T06:47:02.609Z," 10.8"
2019-05-30T06:47:51.309Z," 10.8"
2019-05-30T06:48:39.039Z," 10.9"
2019-05-30T06:49:33.320Z," 10.9"
2019-05-30T06:50:20.774Z," 10.9"
2019-05-30T06:51:09.008Z," 11.0"
2019-05-30T06:51:57.809Z," 11.0"
2019-05-30T06:52:45.417Z," 11.0"
2019-05-30T06:53:38.999Z," 11.0"
2019-05-30T06:54:27.833Z," 11.1"
2019-05-30T06:55:15.425Z," 11.1"
2019-05-30T06:56:04.177Z," 11.2"
2019-05-30T06:56:51.868Z," 11.2"
2019-05-30T06:57:45.458Z," 11.3"
2019-05-30T06:58:45.801Z," 11.3"
2019-05-30T06:59:21.875Z," 11.4"
2019-05-30T07:00:10.629Z," 11.4"
2019-05-30T07:00:58.294Z," 11.4"
2019-05-30T07:01:52.339Z," 11.5"
2019-05-30T07:02:40.089Z," 11.5"
2019-05-30T07:03:28.517Z," 11.5"
2019-05-30T07:04:17.544Z," 11.6"
2019-05-30T07:05:05.257Z," 11.6"
2019-05-30T07:05:58.767Z," 11.6"
2019-05-30T07:06:46.781Z," 11.6"
2019-05-30T07:07:34.953Z," 11.6"
2019-05-30T07:08:24.593Z," 11.7"
2019-05-30T07:09:11.184Z," 11.7"
2019-05-30T07:10:04.767Z," 11.8"
2019-05-30T07:10:52.981Z," 11.8"
2019-05-30T07:11:42.410Z," 11.9"
2019-05-30T07:12:31.177Z," 11.9"
2019-05-30T07:13:17.666Z," 12.0"
2019-05-30T07:14:11.291Z," 12.0"
2019-05-30T07:14:59.476Z," 12.1"
2019-05-30T07:15:47.725Z," 12.1"
2019-05-30T07:16:36.574Z," 12.2"
2019-05-30T07:17:25.089Z," 12.2"
2019-05-30T07:18:17.754Z," 12.2"
2019-05-30T07:19:05.974Z," 12.2"
2019-05-30T07:19:54.202Z," 12.3"
2019-05-30T07:20:43.069Z," 12.3"
2019-05-30T07:21:31.719Z," 12.3"
2019-05-30T07:22:25.512Z," 12.3"
2019-05-30T07:23:12.469Z," 12.4"
2019-05-30T07:24:00.816Z," 12.4"
2019-05-30T07:24:49.500Z," 12.4"
2019-05-30T07:25:37.162Z," 12.4"
2019-05-30T07:26:31.876Z," 12.4"
2019-05-30T07:27:18.957Z," 12.5"
2019-05-30T07:28:07.257Z," 12.5"
2019-05-30T07:28:56.053Z," 12.5"
2019-05-30T07:29:43.638Z," 12.5"
2019-05-30T07:30:37.228Z," 12.6"
2019-05-30T07:31:26.061Z," 12.6"
2019-05-30T07:32:13.713Z," 12.6"
2019-05-30T07:33:02.605Z," 12.7"
2019-05-30T07:33:50.198Z," 12.7"
2019-05-30T07:34:46.019Z," 12.8"
2019-05-30T07:35:32.128Z," 12.8"
2019-05-30T07:36:20.240Z," 12.9"
2019-05-30T07:37:09.759Z," 12.9"
2019-05-30T07:37:56.736Z," 13.0"
2019-05-30T07:38:50.306Z," 13.0"
2019-05-30T07:39:38.531Z," 13.1"
2019-05-30T07:40:26.853Z," 13.2"
2019-05-30T07:41:16.128Z," 13.2"
2019-05-30T07:42:06.656Z," 13.3"
2019-05-30T07:42:56.914Z," 13.3"
2019-05-30T07:43:45.139Z," 13.4"
2019-05-30T07:44:33.529Z," 13.5"
2019-05-30T07:45:22.236Z," 13.5"
2019-05-30T07:46:09.914Z," 13.6"
2019-05-30T07:47:03.480Z," 13.6"
2019-05-30T07:47:51.743Z," 13.7"
2019-05-30T07:48:40.012Z," 13.7"
2019-05-30T07:49:32.384Z," 13.8"
2019-05-30T07:50:16.543Z," 13.8"
2019-05-30T07:51:10.174Z," 13.9"
2019-05-30T07:51:58.360Z," 13.9"
2019-05-30T07:52:46.604Z," 13.9"
2019-05-30T07:53:35.491Z," 14.0"
2019-05-30T07:54:23.134Z," 14.0"
2019-05-30T07:55:16.694Z," 14.0"
2019-05-30T07:56:04.976Z," 14.0"
2019-05-30T07:56:53.221Z," 14.0"
2019-05-30T07:57:42.758Z," 14.1"
2019-05-30T07:58:29.717Z," 14.1"
2019-05-30T07:59:23.300Z," 14.1"
2019-05-30T08:00:11.586Z," 14.2"
2019-05-30T08:00:59.858Z," 14.2"
2019-05-30T08:01:48.681Z," 14.2"
2019-05-30T08:02:36.403Z," 14.2"
2019-05-30T08:03:30.474Z," 14.2"
2019-05-30T08:04:18.155Z," 14.3"
2019-05-30T08:05:55.308Z," 14.3"
2019-05-30T08:06:44.361Z," 14.3"
2019-05-30T08:07:36.517Z," 14.3"
2019-05-30T08:08:24.811Z," 14.3"
2019-05-30T08:09:13.040Z," 14.3"
2019-05-30T08:10:01.298Z," 14.4"
2019-05-30T08:10:50.150Z," 14.4"
2019-05-30T08:11:43.123Z," 14.4"
2019-05-30T08:12:32.033Z," 14.4"
2019-05-30T08:14:07.931Z," 14.5"
2019-05-30T08:14:56.207Z," 14.5"
2019-05-30T08:15:50.879Z," 14.6"
2019-05-30T08:16:14.189Z," 14.6"
2019-05-30T08:16:35.485Z," 14.6"
2019-05-30T08:17:22.819Z," 14.6"
2019-05-30T08:18:11.067Z," 14.6"
2019-05-30T08:18:59.343Z," 14.7"
2019-05-30T08:19:53.579Z," 14.7"
2019-05-30T08:20:41.183Z," 14.7"
2019-05-30T08:21:29.845Z," 14.7"
2019-05-30T08:22:17.698Z," 14.8"
2019-05-30T08:23:09.512Z," 14.8"
2019-05-30T08:24:00.133Z," 14.8"
2019-05-30T08:24:47.850Z," 14.9"
2019-05-30T08:25:36.589Z," 14.9"
2019-05-30T08:26:24.394Z," 14.9"
2019-05-30T08:27:12.647Z," 14.9"
2019-05-30T08:28:06.996Z," 14.9"
2019-05-30T08:28:54.501Z," 14.9"
2019-05-30T08:29:42.771Z," 15.0"
2019-05-30T08:30:32.294Z," 15.0"
2019-05-30T08:31:19.323Z," 15.0"
2019-05-30T08:32:13.568Z," 15.0"
2019-05-30T08:33:01.350Z," 15.0"
2019-05-30T08:33:49.443Z," 15.1"
2019-05-30T08:34:38.787Z," 15.1"
2019-05-30T08:35:39.182Z," 15.1"
2019-05-30T08:36:20.182Z," 15.2"
2019-05-30T08:37:07.843Z," 15.2"
2019-05-30T08:37:56.126Z," 15.2"
2019-05-30T08:38:47.979Z," 15.2"
2019-05-30T08:39:33.016Z," 15.2"
2019-05-30T08:40:26.859Z," 15.2"
2019-05-30T08:41:14.568Z," 15.2"
2019-05-30T08:42:02.976Z," 15.2"
2019-05-30T08:42:51.142Z," 15.3"
2019-05-30T08:43:39.720Z," 15.3"
2019-05-30T08:44:33.846Z," 15.3"
2019-05-30T08:45:21.304Z," 15.3"
2019-05-30T08:46:09.634Z," 15.3"
2019-05-30T08:46:57.897Z," 15.4"
2019-05-30T08:47:46.196Z," 15.4"
2019-05-30T08:48:40.455Z," 15.4"
2019-05-30T08:49:28.071Z," 15.5"
2019-05-30T08:50:16.375Z," 15.6"
2019-05-30T08:51:04.655Z," 15.6"
2019-05-30T08:51:52.964Z," 15.7"
2019-05-30T08:52:47.046Z," 15.7"
2019-05-30T08:53:34.846Z," 15.7"
2019-05-30T08:54:23.125Z," 15.7"
2019-05-30T08:55:11.425Z," 15.7"
2019-05-30T08:55:59.733Z," 15.8"
2019-05-30T08:56:53.816Z," 15.8"
2019-05-30T08:57:41.647Z," 15.8"
2019-05-30T08:58:30.403Z," 15.8"
2019-05-30T08:59:18.288Z," 15.8"
2019-05-30T09:00:06.491Z," 15.8"
2019-05-30T09:01:00.606Z," 15.8"
2019-05-30T09:01:52.911Z," 15.9"
2019-05-30T09:02:36.711Z," 15.9"
2019-05-30T09:03:24.991Z," 15.9"
2019-05-30T09:04:13.245Z," 15.9"
2019-05-30T09:05:07.371Z," 15.9"
2019-05-30T09:06:03.299Z," 15.9"
2019-05-30T09:06:44.175Z," 16.0"
2019-05-30T09:07:31.934Z," 16.0"
2019-05-30T09:09:13.710Z," 16.0"
2019-05-30T09:10:02.867Z," 16.1"
2019-05-30T09:10:50.231Z," 16.1"
2019-05-30T09:11:39.294Z," 16.2"
2019-05-30T09:12:26.768Z," 16.2"
2019-05-30T09:13:20.366Z," 16.3"
2019-05-30T09:14:09.207Z," 16.3"
2019-05-30T09:14:56.929Z," 16.4"
2019-05-30T09:15:45.348Z," 16.4"
2019-05-30T09:16:33.535Z," 16.4"
2019-05-30T09:17:27.151Z," 16.5"
2019-05-30T09:18:17.093Z," 16.5"
2019-05-30T09:19:03.740Z," 16.5"
2019-05-30T09:19:52.037Z," 16.6"
2019-05-30T09:20:41.904Z," 16.6"
2019-05-30T09:21:33.933Z," 16.7"
2019-05-30T09:22:22.839Z," 16.7"
2019-05-30T09:23:10.538Z," 16.7"
2019-05-30T09:24:01.383Z," 16.8"
2019-05-30T09:24:48.159Z," 16.8"
2019-05-30T09:25:41.515Z," 16.8"
2019-05-30T09:26:30.062Z," 16.8"
2019-05-30T09:27:17.334Z," 16.9"
2019-05-30T09:27:20.173Z," 16.9"
2019-05-30T09:27:58.820Z," 16.9"
2019-05-30T09:28:48.176Z," 17.0"
2019-05-30T09:29:42.905Z," 17.0"
2019-05-30T09:30:29.658Z," 17.0"
2019-05-30T09:31:17.328Z," 17.1"
2019-05-30T09:32:05.633Z," 17.2"
2019-05-30T09:32:53.937Z," 17.3"
2019-05-30T09:33:48.625Z," 17.5"
2019-05-30T09:34:36.963Z," 17.5"
2019-05-30T09:35:24.187Z," 17.4"
2019-05-30T09:36:13.967Z," 17.4"
2019-05-30T09:37:00.789Z," 17.4"
2019-05-30T09:37:54.855Z," 17.4"
2019-05-30T09:38:43.600Z," 17.4"
2019-05-30T09:39:31.046Z," 17.5"
2019-05-30T09:40:19.377Z," 17.5"
2019-05-30T09:41:07.681Z," 17.5"
2019-05-30T09:42:01.424Z," 17.5"
2019-05-30T09:42:50.454Z," 17.6"
2019-05-30T09:43:37.896Z," 17.6"
2019-05-30T09:44:26.208Z," 17.7"
2019-05-30T09:45:14.519Z," 17.8"
2019-05-30T09:46:08.203Z," 17.9"
2019-05-30T09:46:57.943Z," 17.9"
2019-05-30T09:47:23.549Z," 17.9"
2019-05-30T09:47:46.167Z," 18.0"
2019-05-30T09:48:32.243Z," 18.1"
2019-05-30T09:49:20.568Z," 18.1"
2019-05-30T09:50:14.244Z," 18.2"